createdAt,value
2018-11-14T00:02:02.635Z,9.77
2018-11-14T00:04:31.913Z,9.75
2018-11-14T00:07:01.010Z,9.74
2018-11-14T00:09:45.308Z,9.72
2018-11-14T00:12:14.369Z,9.71
2018-11-14T00:14:43.628Z,9.67
2018-11-14T00:17:13.389Z,9.64
2018-11-14T00:19:42.684Z,9.63
2018-11-14T00:22:11.954Z,9.60
2018-11-14T00:24:41.552Z,9.57
2018-11-14T00:27:10.998Z,9.54
2018-11-14T00:29:40.938Z,9.54
2018-11-14T00:32:09.774Z,9.54
2018-11-14T00:34:39.049Z,9.52
2018-11-14T00:37:08.550Z,9.50
2018-11-14T00:39:38.033Z,9.49
2018-11-14T00:42:07.582Z,9.47
2018-11-14T00:44:36.863Z,9.47
2018-11-14T00:47:05.799Z,9.47
2018-11-14T00:49:35.070Z,9.49
2018-11-14T00:52:04.047Z,9.49
2018-11-14T00:54:33.891Z,9.49
2018-11-14T00:57:02.833Z,9.47
2018-11-14T00:59:32.114Z,9.45
2018-11-14T01:02:02.781Z,9.45
2018-11-14T01:04:31.999Z,9.44
2018-11-14T01:07:01.609Z,9.42
2018-11-14T01:09:31.346Z,9.39
2018-11-14T01:12:00.761Z,9.39
2018-11-14T01:14:30.215Z,9.36
2018-11-14T01:16:59.331Z,9.39
2018-11-14T01:19:29.521Z,9.40
2018-11-14T01:21:58.957Z,9.37
2018-11-14T01:24:28.227Z,9.35
2018-11-14T01:26:58.045Z,9.30
2018-11-14T01:29:27.758Z,9.29
2018-11-14T01:31:57.033Z,9.27
2018-11-14T01:34:26.354Z,9.24
2018-11-14T01:36:55.679Z,9.22
2018-11-14T01:39:25.234Z,9.19
2018-11-14T01:41:54.789Z,9.19
2018-11-14T01:44:24.070Z,9.18
2018-11-14T01:46:53.360Z,9.16
2018-11-14T01:49:22.679Z,9.12
2018-11-14T01:51:51.966Z,9.11
2018-11-14T01:54:21.810Z,9.10
2018-11-14T01:56:51.074Z,9.09
2018-11-14T01:59:20.646Z,9.08
2018-11-14T02:01:49.927Z,9.08
2018-11-14T02:04:20.246Z,9.08
2018-11-14T02:06:49.806Z,9.04
2018-11-14T02:09:20.264Z,9.01
2018-11-14T02:11:49.537Z,9.01
2018-11-14T02:14:20.090Z,8.98
2018-11-14T02:16:49.355Z,8.96
2018-11-14T02:19:19.638Z,8.95
2018-11-14T02:21:48.966Z,8.94
2018-11-14T02:24:18.222Z,8.92
2018-11-14T02:26:47.485Z,8.92
2018-11-14T02:29:17.058Z,8.91
2018-11-14T02:31:46.534Z,8.91
2018-11-14T02:34:16.058Z,8.92
2018-11-14T02:36:45.437Z,8.88
2018-11-14T02:39:14.698Z,8.86
2018-11-14T02:41:44.179Z,8.82
2018-11-14T02:44:14.189Z,8.80
2018-11-14T02:46:43.173Z,8.77
2018-11-14T02:49:12.910Z,8.73
2018-11-14T02:51:42.190Z,8.72
2018-11-14T02:54:11.457Z,8.66
2018-11-14T02:56:40.741Z,8.62
2018-11-14T02:59:10.197Z,8.61
2018-11-14T03:01:39.474Z,8.58
2018-11-14T03:04:09.317Z,8.55
2018-11-14T03:06:38.591Z,8.55
2018-11-14T03:09:07.625Z,8.52
2018-11-14T03:11:37.210Z,8.53
2018-11-14T03:14:05.694Z,8.51
2018-11-14T03:16:35.262Z,8.48
2018-11-14T03:19:04.058Z,8.47
2018-11-14T03:21:33.614Z,8.48
2018-11-14T03:24:03.182Z,8.47
2018-11-14T03:26:32.422Z,8.46
2018-11-14T03:29:01.981Z,8.43
2018-11-14T03:31:31.749Z,8.43
2018-11-14T03:34:01.001Z,8.43
2018-11-14T03:36:30.141Z,8.44
2018-11-14T03:38:59.422Z,8.47
2018-11-14T03:41:28.697Z,8.46
2018-11-14T03:43:58.137Z,8.47
2018-11-14T03:46:27.430Z,8.47
2018-11-14T03:48:56.701Z,8.45
2018-11-14T03:51:26.137Z,8.43
2018-11-14T03:53:55.401Z,8.39
2018-11-14T03:56:24.682Z,8.35
2018-11-14T03:58:54.246Z,8.31
2018-11-14T04:01:23.533Z,8.27
2018-11-14T04:03:52.799Z,8.24
2018-11-14T04:06:22.451Z,8.23
2018-11-14T04:08:52.202Z,8.23
2018-11-14T04:11:21.615Z,8.21
2018-11-14T04:13:51.602Z,8.17
2018-11-14T04:16:21.170Z,8.17
2018-11-14T04:18:50.437Z,8.16
2018-11-14T04:21:20.572Z,8.16
2018-11-14T04:23:49.610Z,8.14
2018-11-14T04:26:20.242Z,8.13
2018-11-14T04:28:50.490Z,8.11
2018-11-14T04:31:20.654Z,8.07
2018-11-14T04:33:49.971Z,8.03
2018-11-14T04:36:20.642Z,8.00
2018-11-14T04:38:49.918Z,8.00
2018-11-14T04:41:20.658Z,7.99
2018-11-14T04:43:49.943Z,8.00
2018-11-14T04:46:20.682Z,7.99
2018-11-14T04:48:50.308Z,7.96
2018-11-14T04:51:20.758Z,7.95
2018-11-14T04:53:50.321Z,7.96
2018-11-14T04:56:20.798Z,7.94
2018-11-14T04:58:50.337Z,7.97
2018-11-14T05:01:20.786Z,8.02
2018-11-14T05:03:50.360Z,8.04
2018-11-14T05:06:20.775Z,8.03
2018-11-14T05:08:50.042Z,8.06
2018-11-14T05:11:20.913Z,8.07
2018-11-14T05:13:50.545Z,8.06
2018-11-14T05:16:20.743Z,8.07
2018-11-14T05:18:50.319Z,8.11
2018-11-14T05:21:20.765Z,8.07
2018-11-14T05:23:50.045Z,8.14
2018-11-14T05:26:20.441Z,8.12
2018-11-14T05:28:49.725Z,8.08
2018-11-14T05:31:19.005Z,8.08
2018-11-14T05:33:48.426Z,8.07
2018-11-14T05:36:17.750Z,8.04
2018-11-14T05:38:47.016Z,8.03
2018-11-14T05:41:16.565Z,8.03
2018-11-14T05:43:45.849Z,8.02
2018-11-14T05:46:15.419Z,8.00
2018-11-14T05:48:44.893Z,7.98
2018-11-14T05:51:13.942Z,7.97
2018-11-14T05:53:43.225Z,7.96
2018-11-14T05:56:12.933Z,7.94
2018-11-14T05:58:42.266Z,7.91
2018-11-14T06:01:11.539Z,7.92
2018-11-14T06:03:41.007Z,7.92
2018-11-14T06:06:10.358Z,7.93
2018-11-14T06:08:39.693Z,7.93
2018-11-14T06:11:08.962Z,7.94
2018-11-14T06:13:38.195Z,7.95
2018-11-14T06:16:07.558Z,7.95
2018-11-14T06:18:36.830Z,7.94
2018-11-14T06:21:05.782Z,7.92
2018-11-14T06:23:35.114Z,7.93
2018-11-14T06:26:17.199Z,7.95
2018-11-14T06:28:53.998Z,7.94
2018-11-14T06:31:23.566Z,7.93
2018-11-14T06:33:52.527Z,7.92
2018-11-14T06:36:22.098Z,7.91
2018-11-14T06:38:51.957Z,7.92
2018-11-14T06:41:21.479Z,7.90
2018-11-14T06:43:50.741Z,7.89
2018-11-14T06:46:21.005Z,7.88
2018-11-14T06:48:50.665Z,7.88
2018-11-14T06:51:21.034Z,7.86
2018-11-14T06:53:50.297Z,7.84
2018-11-14T06:56:20.794Z,7.82
2018-11-14T06:58:50.152Z,7.82
2018-11-14T07:01:21.149Z,7.65
2018-11-14T07:03:51.006Z,7.81
2018-11-14T07:06:21.034Z,7.81
2018-11-14T07:08:50.309Z,7.79
2018-11-14T07:11:21.171Z,7.77
2018-11-14T07:13:50.757Z,7.74
2018-11-14T07:16:21.098Z,7.79
2018-11-14T07:18:50.702Z,7.81
2018-11-14T07:21:21.249Z,7.82
2018-11-14T07:23:50.890Z,7.85
2018-11-14T07:26:21.190Z,7.88
2018-11-14T07:28:51.439Z,7.89
2018-11-14T07:31:20.847Z,7.98
2018-11-14T07:33:50.387Z,8.03
2018-11-14T07:36:21.144Z,8.07
2018-11-14T07:38:50.947Z,8.11
2018-11-14T07:41:21.046Z,8.12
2018-11-14T07:43:50.306Z,8.16
2018-11-14T07:46:21.170Z,8.22
2018-11-14T07:48:50.793Z,8.34
2018-11-14T07:51:21.166Z,8.72
2018-11-14T07:53:50.991Z,9.19
2018-11-14T07:56:21.169Z,9.55
2018-11-14T07:58:49.880Z,9.86
2018-11-14T08:01:19.008Z,10.09
2018-11-14T08:03:48.274Z,10.23
2018-11-14T08:06:17.627Z,10.34
2018-11-14T08:08:47.013Z,10.47
2018-11-14T08:11:16.045Z,10.63
2018-11-14T08:13:45.319Z,10.80
2018-11-14T08:16:14.991Z,10.99
2018-11-14T08:18:44.254Z,11.19
2018-11-14T08:21:13.672Z,11.47
2018-11-14T08:23:43.169Z,11.70
2018-11-14T08:26:12.440Z,11.80
2018-11-14T08:28:41.649Z,11.90
2018-11-14T08:31:11.197Z,12.06
2018-11-14T08:33:40.205Z,12.27
2018-11-14T08:36:09.481Z,12.44
2018-11-14T08:38:39.417Z,12.69
2018-11-14T08:41:09.043Z,12.82
2018-11-14T08:43:38.312Z,12.93
2018-11-14T08:46:07.929Z,12.96
2018-11-14T08:48:37.197Z,13.00
2018-11-14T08:51:06.686Z,13.09
2018-11-14T08:53:36.306Z,13.10
2018-11-14T08:56:05.285Z,13.05
2018-11-14T08:58:34.343Z,13.16
2018-11-14T09:01:03.605Z,13.26
2018-11-14T09:03:32.868Z,13.36
2018-11-14T09:06:02.477Z,13.47
2018-11-14T09:08:32.230Z,13.59
2018-11-14T09:11:01.532Z,13.70
2018-11-14T09:13:31.179Z,13.87
2018-11-14T09:16:00.402Z,14.13
2018-11-14T09:18:29.398Z,14.36
2018-11-14T09:20:59.101Z,14.57
2018-11-14T09:23:28.157Z,14.84
2018-11-14T09:25:57.422Z,15.04
2018-11-14T09:28:27.530Z,15.19
2018-11-14T09:30:57.049Z,15.29
2018-11-14T09:33:26.602Z,15.37
2018-11-14T09:35:56.165Z,15.39
2018-11-14T09:38:25.434Z,15.39
2018-11-14T09:40:55.020Z,15.46
2018-11-14T09:43:24.466Z,15.52
2018-11-14T09:45:54.051Z,15.67
2018-11-14T09:48:23.319Z,15.84
2018-11-14T09:50:53.082Z,15.94
2018-11-14T09:53:22.475Z,15.92
2018-11-14T09:55:51.890Z,15.81
2018-11-14T09:58:21.510Z,15.79
2018-11-14T10:00:50.810Z,15.79
2018-11-14T10:03:21.398Z,15.86
2018-11-14T10:05:51.440Z,15.94
2018-11-14T10:08:21.492Z,16.10
2018-11-14T10:10:51.056Z,16.23
2018-11-14T10:13:21.448Z,16.41
2018-11-14T10:15:50.460Z,16.51
2018-11-14T10:18:21.404Z,16.75
2018-11-14T10:20:51.182Z,16.85
2018-11-14T10:23:21.594Z,16.78
2018-11-14T10:25:50.851Z,16.80
2018-11-14T10:28:21.475Z,16.99
2018-11-14T10:30:54.120Z,17.32
2018-11-14T10:33:23.258Z,17.63
2018-11-14T10:35:52.534Z,17.84
2018-11-14T10:38:21.802Z,17.81
2018-11-14T10:40:51.374Z,17.68
2018-11-14T10:43:21.533Z,17.64
2018-11-14T10:45:51.346Z,17.67
2018-11-14T10:48:21.498Z,17.64
2018-11-14T10:50:50.827Z,17.61
2018-11-14T10:53:21.963Z,17.48
2018-11-14T10:55:51.286Z,17.45
2018-11-14T10:58:21.165Z,17.39
2018-11-14T11:00:50.722Z,17.45
2018-11-14T11:03:20.918Z,17.49
2018-11-14T11:05:50.094Z,17.53
2018-11-14T11:08:23.197Z,17.58
2018-11-14T11:10:52.605Z,17.79
2018-11-14T11:13:21.933Z,17.94
2018-11-14T11:15:50.874Z,17.87
2018-11-14T11:18:19.543Z,17.76
2018-11-14T11:20:49.569Z,17.79
2018-11-14T11:23:18.828Z,17.70
2018-11-14T11:25:49.198Z,17.50
2018-11-14T11:28:18.235Z,17.38
2018-11-14T11:30:47.573Z,17.46
2018-11-14T11:33:16.640Z,17.71
2018-11-14T11:35:45.565Z,17.90
2018-11-14T11:38:14.591Z,18.07
2018-11-14T11:40:43.991Z,18.06
2018-11-14T11:43:13.461Z,17.93
2018-11-14T11:45:42.723Z,17.88
2018-11-14T11:48:11.138Z,17.99
2018-11-14T11:50:40.445Z,18.23
2018-11-14T11:53:10.698Z,18.52
2018-11-14T11:55:39.972Z,18.81
2018-11-14T11:58:09.415Z,19.04
2018-11-14T12:00:38.899Z,18.97
2018-11-14T12:03:08.495Z,19.06
2018-11-14T12:05:37.823Z,19.35
2018-11-14T12:08:06.962Z,19.66
2018-11-14T12:10:36.624Z,19.96
2018-11-14T12:13:06.130Z,19.98
2018-11-14T12:15:35.850Z,19.90
2018-11-14T12:18:05.003Z,19.50
2018-11-14T12:20:34.454Z,19.17
2018-11-14T12:23:03.710Z,19.22
2018-11-14T12:25:33.003Z,19.26
2018-11-14T12:28:02.461Z,19.19
2018-11-14T12:30:31.749Z,19.42
2018-11-14T12:33:01.722Z,19.64
2018-11-14T12:35:31.048Z,19.96
2018-11-14T12:38:00.482Z,19.88
2018-11-14T12:40:29.758Z,19.59
2018-11-14T12:42:59.017Z,19.39
2018-11-14T12:45:28.369Z,19.30
2018-11-14T12:47:57.644Z,19.32
2018-11-14T12:50:26.917Z,19.19
2018-11-14T12:52:56.488Z,19.08
2018-11-14T12:55:25.773Z,19.12
2018-11-14T12:57:55.337Z,18.81
2018-11-14T13:00:25.042Z,18.52
2018-11-14T13:02:54.590Z,18.41
2018-11-14T13:05:24.067Z,18.53
2018-11-14T13:07:53.261Z,18.68
2018-11-14T13:10:22.812Z,18.73
2018-11-14T13:12:52.374Z,18.70
2018-11-14T13:15:22.082Z,18.67
2018-11-14T13:17:59.863Z,18.60
2018-11-14T13:20:29.128Z,18.70
2018-11-14T13:22:58.721Z,18.76
2018-11-14T13:25:28.002Z,18.73
2018-11-14T13:27:57.544Z,18.55
2018-11-14T13:30:27.005Z,18.43
2018-11-14T13:32:56.701Z,18.41
2018-11-14T13:35:25.967Z,18.54
2018-11-14T13:37:55.531Z,18.70
2018-11-14T13:40:24.850Z,18.79
2018-11-14T13:42:54.126Z,18.80
2018-11-14T13:45:23.691Z,18.60
2018-11-14T13:47:52.962Z,18.41
2018-11-14T13:50:22.404Z,18.20
2018-11-14T13:52:51.750Z,18.07
2018-11-14T13:55:21.908Z,17.93
2018-11-14T13:57:51.171Z,17.73
2018-11-14T14:00:21.582Z,17.58
2018-11-14T14:02:50.633Z,17.50
2018-11-14T14:05:20.086Z,17.43
2018-11-14T14:07:49.642Z,17.37
2018-11-14T14:10:18.350Z,17.38
2018-11-14T14:12:47.478Z,17.40
2018-11-14T14:15:16.582Z,17.41
2018-11-14T14:17:45.813Z,17.38
2018-11-14T14:20:15.095Z,17.39
2018-11-14T14:22:44.282Z,17.41
2018-11-14T14:25:13.930Z,17.42
2018-11-14T14:27:43.190Z,17.42
2018-11-14T14:30:12.170Z,17.42
2018-11-14T14:32:41.823Z,17.48
2018-11-14T14:35:11.046Z,17.56
2018-11-14T14:37:40.303Z,17.54
2018-11-14T14:40:09.197Z,17.45
2018-11-14T14:42:39.249Z,17.32
2018-11-14T14:45:08.289Z,17.17
2018-11-14T14:47:38.198Z,16.99
2018-11-14T14:50:06.910Z,16.84
2018-11-14T14:52:36.717Z,16.68
2018-11-14T14:55:05.448Z,16.54
2018-11-14T14:57:35.555Z,16.42
2018-11-14T15:00:05.482Z,16.26
2018-11-14T15:02:35.054Z,16.16
2018-11-14T15:05:04.430Z,16.11
2018-11-14T15:07:34.299Z,16.16
2018-11-14T15:10:03.222Z,16.14
2018-11-14T15:12:32.151Z,16.08
2018-11-14T15:15:01.197Z,16.05
2018-11-14T15:17:30.232Z,16.01
2018-11-14T15:19:59.790Z,15.98
2018-11-14T15:22:29.568Z,15.94
2018-11-14T15:24:59.105Z,15.88
2018-11-14T15:27:28.379Z,15.79
2018-11-14T15:29:58.151Z,15.71
2018-11-14T15:32:40.159Z,15.61
2018-11-14T15:35:20.994Z,15.56
2018-11-14T15:38:02.706Z,15.46
2018-11-14T15:40:44.381Z,15.30
2018-11-14T15:43:23.665Z,15.18
2018-11-14T15:45:52.999Z,15.03
2018-11-14T15:48:22.382Z,14.86
2018-11-14T15:50:51.641Z,14.67
2018-11-14T15:53:22.262Z,14.49
2018-11-14T15:55:51.514Z,14.37
2018-11-14T15:58:22.179Z,14.23
2018-11-14T16:00:51.129Z,14.18
2018-11-14T16:03:20.442Z,14.13
2018-11-14T16:05:49.772Z,14.06
2018-11-14T16:08:19.279Z,13.94
2018-11-14T16:10:48.307Z,13.81
2018-11-14T16:13:17.581Z,13.68
2018-11-14T16:15:46.806Z,13.63
2018-11-14T16:18:16.095Z,13.58
2018-11-14T16:20:45.650Z,13.50
2018-11-14T16:23:15.211Z,13.45
2018-11-14T16:25:44.465Z,13.43
2018-11-14T16:28:13.753Z,13.40
2018-11-14T16:30:43.225Z,13.37
2018-11-14T16:33:12.684Z,13.30
2018-11-14T16:35:41.966Z,13.19
2018-11-14T16:38:11.310Z,13.07
2018-11-14T16:40:40.843Z,12.99
2018-11-14T16:43:10.365Z,12.97
2018-11-14T16:45:39.499Z,12.96
2018-11-14T16:48:08.778Z,12.94
2018-11-14T16:50:38.335Z,12.92
2018-11-14T16:53:07.614Z,12.89
2018-11-14T16:55:37.759Z,12.81
2018-11-14T16:58:06.738Z,12.71
2018-11-14T17:00:36.015Z,12.61
2018-11-14T17:03:04.955Z,12.52
2018-11-14T17:05:34.975Z,12.46
2018-11-14T17:08:04.736Z,12.45
2018-11-14T17:10:34.315Z,12.45
2018-11-14T17:13:03.595Z,12.41
2018-11-14T17:15:32.862Z,12.33
2018-11-14T17:18:02.426Z,12.25
2018-11-14T17:20:31.369Z,12.19
2018-11-14T17:23:00.645Z,12.12
2018-11-14T17:25:29.980Z,12.03
2018-11-14T17:27:59.429Z,11.93
2018-11-14T17:30:28.717Z,11.91
2018-11-14T17:32:58.349Z,11.85
2018-11-14T17:35:27.755Z,11.77
2018-11-14T17:37:58.006Z,11.66
2018-11-14T17:40:27.222Z,11.60
2018-11-14T17:42:56.605Z,11.56
2018-11-14T17:45:25.898Z,11.51
2018-11-14T17:47:55.452Z,11.48
2018-11-14T17:50:24.518Z,11.38
2018-11-14T17:52:53.555Z,11.35
2018-11-14T17:55:22.896Z,11.35
2018-11-14T17:57:52.602Z,11.32
2018-11-14T18:00:22.862Z,11.26
2018-11-14T18:02:52.185Z,11.22
2018-11-14T18:05:22.602Z,11.21
2018-11-14T18:07:51.657Z,11.17
2018-11-14T18:10:20.603Z,11.14
2018-11-14T18:12:50.046Z,11.09
2018-11-14T18:15:19.950Z,11.05
2018-11-14T18:17:49.502Z,11.02
2018-11-14T18:20:18.538Z,10.99
2018-11-14T18:22:48.290Z,10.88
2018-11-14T18:25:17.312Z,10.77
2018-11-14T18:27:46.591Z,10.76
2018-11-14T18:30:15.303Z,10.80
2018-11-14T18:32:44.817Z,10.81
2018-11-14T18:35:14.416Z,10.82
2018-11-14T18:37:43.364Z,10.77
2018-11-14T18:40:12.699Z,10.71
2018-11-14T18:42:41.732Z,10.65
2018-11-14T18:45:10.677Z,10.59
2018-11-14T18:47:39.996Z,10.55
2018-11-14T18:50:09.022Z,10.50
2018-11-14T18:52:38.622Z,10.46
2018-11-14T18:55:07.556Z,10.40
2018-11-14T18:57:37.121Z,10.37
2018-11-14T19:00:07.011Z,10.34
2018-11-14T19:02:37.965Z,10.30
2018-11-14T19:05:07.466Z,10.16
2018-11-14T19:07:36.881Z,10.05
2018-11-14T19:10:05.582Z,9.97
2018-11-14T19:12:35.079Z,9.91
2018-11-14T19:15:04.083Z,9.88
2018-11-14T19:17:33.773Z,9.85
2018-11-14T19:20:03.450Z,9.77
2018-11-14T19:22:33.069Z,9.73
2018-11-14T19:25:02.403Z,9.75
2018-11-14T19:27:31.971Z,9.74
2018-11-14T19:30:01.809Z,9.70
2018-11-14T19:32:30.791Z,9.71
2018-11-14T19:35:00.198Z,9.73
2018-11-14T19:37:29.991Z,9.75
2018-11-14T19:40:00.178Z,9.77
2018-11-14T19:42:29.779Z,9.78
2018-11-14T19:44:59.269Z,9.72
2018-11-14T19:47:28.880Z,9.59
2018-11-14T19:49:58.171Z,9.49
2018-11-14T19:52:27.744Z,9.46
2018-11-14T19:54:57.031Z,9.46
2018-11-14T19:57:26.583Z,9.45
2018-11-14T19:59:56.038Z,9.49
2018-11-14T20:02:25.435Z,9.46
2018-11-14T20:05:02.482Z,9.46
2018-11-14T20:07:33.237Z,9.47
2018-11-14T20:10:02.794Z,9.45
2018-11-14T20:12:32.120Z,9.42
2018-11-14T20:15:01.713Z,9.36
2018-11-14T20:17:31.127Z,9.39
2018-11-14T20:20:00.705Z,9.40
2018-11-14T20:22:30.835Z,9.33
2018-11-14T20:25:00.091Z,9.28
2018-11-14T20:27:29.399Z,9.26
2018-11-14T20:29:59.037Z,9.24
2018-11-14T20:32:28.316Z,9.24
2018-11-14T20:34:57.874Z,9.23
2018-11-14T20:37:27.293Z,9.22
2018-11-14T20:39:56.915Z,9.20
2018-11-14T20:42:26.169Z,9.15
2018-11-14T20:44:55.469Z,9.11
2018-11-14T20:47:25.026Z,9.07
2018-11-14T20:49:54.993Z,9.05
2018-11-14T20:52:24.287Z,9.05
2018-11-14T20:54:53.881Z,9.05
2018-11-14T20:57:23.330Z,9.05
2018-11-14T20:59:52.909Z,9.06
2018-11-14T21:02:23.360Z,9.03
2018-11-14T21:04:52.997Z,9.04
2018-11-14T21:07:23.351Z,8.99
2018-11-14T21:09:52.747Z,8.93
2018-11-14T21:12:23.362Z,8.88
2018-11-14T21:14:53.954Z,8.84
2018-11-14T21:17:23.390Z,8.85
2018-11-14T21:19:52.954Z,8.83
2018-11-14T21:22:23.314Z,8.79
2018-11-14T21:24:52.888Z,8.77
2018-11-14T21:27:23.390Z,8.75
2018-11-14T21:29:52.670Z,8.71
2018-11-14T21:32:23.360Z,8.62
2018-11-14T21:34:52.934Z,8.55
2018-11-14T21:37:23.466Z,8.55
2018-11-14T21:40:04.746Z,8.53
2018-11-14T21:42:44.258Z,8.55
2018-11-14T21:45:13.531Z,8.56
2018-11-14T21:47:42.890Z,8.57
2018-11-14T21:50:12.400Z,8.58
2018-11-14T21:52:42.059Z,8.57
2018-11-14T21:55:10.756Z,8.56
2018-11-14T21:57:39.789Z,8.55
2018-11-14T22:00:09.038Z,8.53
2018-11-14T22:02:38.403Z,8.47
2018-11-14T22:05:07.634Z,8.42
2018-11-14T22:07:36.976Z,8.38
2018-11-14T22:10:05.686Z,8.34
2018-11-14T22:12:35.251Z,8.32
2018-11-14T22:15:04.192Z,8.34
2018-11-14T22:17:33.411Z,8.34
2018-11-14T22:20:02.658Z,8.35
2018-11-14T22:22:32.229Z,8.35
2018-11-14T22:25:01.495Z,8.34
2018-11-14T22:27:31.682Z,8.32
2018-11-14T22:30:01.806Z,8.29
2018-11-14T22:32:31.373Z,8.24
2018-11-14T22:35:00.805Z,8.23
2018-11-14T22:37:30.741Z,8.21
2018-11-14T22:40:00.299Z,8.18
2018-11-14T22:42:30.148Z,8.16
2018-11-14T22:44:59.482Z,8.13
2018-11-14T22:47:28.754Z,8.09
2018-11-14T22:49:58.374Z,8.07
2018-11-14T22:52:27.698Z,8.06
2018-11-14T22:54:57.266Z,8.06
2018-11-14T22:57:26.842Z,8.05
2018-11-14T22:59:56.591Z,8.01
2018-11-14T23:02:25.865Z,8.01
2018-11-14T23:04:55.470Z,7.98
2018-11-14T23:07:24.774Z,7.95
2018-11-14T23:09:54.401Z,7.95
2018-11-14T23:12:23.989Z,7.96
2018-11-14T23:14:53.594Z,7.97
2018-11-14T23:17:23.902Z,7.96
2018-11-14T23:19:53.778Z,7.93
2018-11-14T23:22:23.922Z,7.90
2018-11-14T23:24:53.786Z,7.88
2018-11-14T23:27:23.575Z,7.86
2018-11-14T23:29:52.599Z,7.81
2018-11-14T23:32:21.882Z,7.77
2018-11-14T23:34:51.208Z,7.70
2018-11-14T23:37:20.910Z,7.64
2018-11-14T23:39:51.034Z,7.60
2018-11-14T23:42:20.590Z,7.55
2018-11-14T23:44:49.858Z,7.50
2018-11-14T23:47:19.425Z,7.50
2018-11-14T23:49:48.694Z,7.46
2018-11-14T23:52:17.978Z,7.45
2018-11-14T23:54:47.502Z,7.44
2018-11-14T23:57:16.772Z,7.41
2018-11-14T23:59:46.251Z,7.37
